FVDA weather

Dawsons Airport
Mvurwi, Mashonaland Central Province, Zimbabwe

Public forecast

Using degrees Celsius for public forecast. Weather courtesy of forecast.io.

Closest aviation weather report (METAR) to Dawsons Airport

Closest report is Robert Gabriel Mugabe International Airport, 56.8 nm (105.2 km) SSE. Retrieved 2019/10/15 08:00 UTC (14 minutes ago):

FVRG 150800Z 10009KT CAVOK 27/M05 Q1025 NOSIG

Closest aviation forecast (TAF) to Dawsons Airport

Forecast is more than 12 hours old.

Closest forecast is Robert Gabriel Mugabe International Airport, 56.8 nm (105.2 km) SSE. Retrieved 2019/10/13 18:00 UTC (2 days ago):

TAF FVRG 131600Z 1318/1500 08006KT CAVOK